createdAt,value
2022-12-04T00:00:51.872Z,62.90
2022-12-04T00:03:18.689Z,62.58
2022-12-04T00:05:45.538Z,61.03
2022-12-04T00:08:12.431Z,60.80
2022-12-04T00:10:43.856Z,58.92
2022-12-04T00:13:10.707Z,62.33
2022-12-04T00:15:42.413Z,61.13
2022-12-04T00:18:09.172Z,65.28
2022-12-04T00:20:39.763Z,63.25
2022-12-04T00:23:07.245Z,61.47
2022-12-04T00:25:41.179Z,64.00
2022-12-04T00:28:08.765Z,59.58
2022-12-04T00:30:35.562Z,64.85
2022-12-04T00:33:02.343Z,60.50
2022-12-04T00:35:29.085Z,62.80
2022-12-04T00:37:55.831Z,69.00
2022-12-04T00:40:22.584Z,62.97
2022-12-04T00:42:49.540Z,60.65
2022-12-04T00:45:16.571Z,61.95
2022-12-04T00:47:43.354Z,62.95
2022-12-04T00:50:10.944Z,65.18
2022-12-04T00:52:37.793Z,68.00
2022-12-04T00:55:05.018Z,64.07
2022-12-04T00:57:31.931Z,62.28
2022-12-04T00:59:58.714Z,61.92
2022-12-04T01:02:25.550Z,61.92
2022-12-04T01:04:52.370Z,59.55
2022-12-04T01:07:19.206Z,65.03
2022-12-04T01:09:46.027Z,65.00
2022-12-04T01:12:17.584Z,60.28
2022-12-04T01:14:47.294Z,63.28
2022-12-04T01:17:14.200Z,61.90
2022-12-04T01:19:41.113Z,65.40
2022-12-04T01:22:07.941Z,64.00
2022-12-04T01:24:34.849Z,62.40
2022-12-04T01:27:01.903Z,60.38
2022-12-04T01:29:28.708Z,63.95
2022-12-04T01:31:55.724Z,66.57
2022-12-04T01:34:22.636Z,61.72
2022-12-04T01:36:49.490Z,61.00
2022-12-04T01:39:16.339Z,60.95
2022-12-04T01:41:43.215Z,59.40
2022-12-04T01:44:16.689Z,63.95
2022-12-04T01:46:57.418Z,66.90
2022-12-04T01:49:26.642Z,66.15
2022-12-04T01:51:58.239Z,67.72
2022-12-04T01:54:29.668Z,62.65
2022-12-04T01:57:04.402Z,60.10
2022-12-04T01:59:37.843Z,63.92
2022-12-04T02:02:11.750Z,64.15
2022-12-04T02:04:40.417Z,68.63
2022-12-04T02:07:07.795Z,66.43
2022-12-04T02:09:35.384Z,62.42
2022-12-04T02:12:14.073Z,67.57
2022-12-04T02:15:02.668Z,66.72
2022-12-04T02:17:56.184Z,64.32
2022-12-04T02:20:33.708Z,64.75
2022-12-04T02:23:03.494Z,66.78
2022-12-04T02:26:04.124Z,63.25
2022-12-04T02:28:49.481Z,67.00
2022-12-04T02:31:35.659Z,69.35
2022-12-04T02:34:29.420Z,68.75
2022-12-04T02:37:03.823Z,69.22
2022-12-04T02:39:38.606Z,66.45
2022-12-04T02:42:16.773Z,61.75
2022-12-04T02:44:49.707Z,68.00
2022-12-04T02:47:21.008Z,71.00
2022-12-04T02:49:55.110Z,68.20
2022-12-04T02:52:29.058Z,66.07
2022-12-04T02:55:05.333Z,70.88
2022-12-04T02:57:38.719Z,69.90
2022-12-04T03:00:08.874Z,64.95
2022-12-04T03:02:46.306Z,68.32
2022-12-04T03:05:17.459Z,67.53
2022-12-04T03:07:55.847Z,66.60
2022-12-04T03:10:31.707Z,70.53
2022-12-04T03:13:07.920Z,70.47
2022-12-04T03:15:43.968Z,68.07
2022-12-04T03:18:20.010Z,71.35
2022-12-04T03:20:50.014Z,69.70
2022-12-04T03:23:22.464Z,62.47
2022-12-04T03:26:07.617Z,70.40
2022-12-04T03:28:41.099Z,70.25
2022-12-04T03:31:11.005Z,71.45
2022-12-04T03:33:47.496Z,68.45
2022-12-04T03:36:19.550Z,67.63
2022-12-04T03:38:55.162Z,68.82
2022-12-04T03:41:27.343Z,67.15
2022-12-04T03:44:02.545Z,72.70
2022-12-04T03:46:32.208Z,77.00
2022-12-04T03:49:44.690Z,67.35
2022-12-04T03:52:24.735Z,70.60
2022-12-04T03:55:08.652Z,70.00
2022-12-04T03:57:40.423Z,68.45
2022-12-04T04:00:18.364Z,69.13
2022-12-04T04:03:10.520Z,61.45
2022-12-04T04:05:42.992Z,65.45
2022-12-04T04:08:26.331Z,71.77
2022-12-04T04:11:12.580Z,74.07
2022-12-04T04:14:12.426Z,69.00
2022-12-04T04:17:02.660Z,69.95
2022-12-04T04:19:53.633Z,73.95
2022-12-04T04:22:41.720Z,69.05
2022-12-04T04:25:13.307Z,75.07
2022-12-04T04:27:40.149Z,67.78
2022-12-04T04:30:09.156Z,69.25
2022-12-04T04:32:48.877Z,68.07
2022-12-04T04:35:27.588Z,77.47
2022-12-04T04:38:08.500Z,74.82
2022-12-04T04:40:54.564Z,68.28
2022-12-04T04:43:41.588Z,74.95
2022-12-04T04:46:18.803Z,68.85
2022-12-04T04:48:50.458Z,68.80
2022-12-04T04:51:18.342Z,63.58
2022-12-04T04:53:50.151Z,70.97
2022-12-04T04:56:17.237Z,71.43
2022-12-04T04:58:44.402Z,67.70
2022-12-04T05:01:29.521Z,65.93
2022-12-04T05:03:56.362Z,72.80
2022-12-04T05:06:23.123Z,73.43
2022-12-04T05:08:49.889Z,71.20
2022-12-04T05:11:17.692Z,70.00
2022-12-04T05:13:44.650Z,71.18
2022-12-04T05:16:14.258Z,66.35
2022-12-04T05:18:41.648Z,71.53
2022-12-04T05:21:16.020Z,68.57
2022-12-04T05:23:42.910Z,69.53
2022-12-04T05:26:09.860Z,70.10
2022-12-04T05:28:36.644Z,67.68
2022-12-04T05:31:04.087Z,67.63
2022-12-04T05:33:31.115Z,65.90
2022-12-04T05:36:04.186Z,72.20
2022-12-04T05:38:31.215Z,68.93
2022-12-04T05:40:59.269Z,72.57
2022-12-04T05:43:26.486Z,64.80
2022-12-04T05:45:53.563Z,70.47
2022-12-04T05:48:20.704Z,66.30
2022-12-04T05:50:47.492Z,65.03
2022-12-04T05:53:14.282Z,64.40
2022-12-04T05:55:41.071Z,67.30
2022-12-04T05:58:07.834Z,64.07
2022-12-04T06:00:34.724Z,60.38
2022-12-04T06:03:01.547Z,65.95
2022-12-04T06:05:28.481Z,65.35
2022-12-04T06:07:55.427Z,68.90
2022-12-04T06:10:22.387Z,65.43
2022-12-04T06:12:49.207Z,65.60
2022-12-04T06:15:16.000Z,62.42
2022-12-04T06:17:42.780Z,68.60
2022-12-04T06:20:11.898Z,66.03
2022-12-04T06:22:39.075Z,65.47
2022-12-04T06:25:07.057Z,67.72
2022-12-04T06:27:34.015Z,68.10
2022-12-04T06:30:01.014Z,67.65
2022-12-04T06:32:28.093Z,63.47
2022-12-04T06:34:55.429Z,65.38
2022-12-04T06:37:24.645Z,63.58
2022-12-04T06:39:51.503Z,63.03
2022-12-04T06:42:18.704Z,66.10
2022-12-04T06:44:45.890Z,66.55
2022-12-04T06:47:12.751Z,72.88
2022-12-04T06:49:39.590Z,66.70
2022-12-04T06:52:06.374Z,71.47
2022-12-04T06:54:33.124Z,62.13
2022-12-04T06:56:59.890Z,68.47
2022-12-04T06:59:27.995Z,69.07
2022-12-04T07:01:54.857Z,65.40
2022-12-04T07:04:21.798Z,75.43
2022-12-04T07:06:48.584Z,73.68
2022-12-04T07:09:17.308Z,72.70
2022-12-04T07:11:44.987Z,70.65
2022-12-04T07:14:13.282Z,67.35
2022-12-04T07:16:41.964Z,68.38
2022-12-04T07:19:14.365Z,69.32
2022-12-04T07:21:42.284Z,76.40
2022-12-04T07:24:16.072Z,72.75
2022-12-04T07:26:43.465Z,70.28
2022-12-04T07:29:10.724Z,71.82
2022-12-04T07:31:38.427Z,71.95
2022-12-04T07:34:05.341Z,76.20
2022-12-04T07:36:35.233Z,71.50
2022-12-04T07:39:02.108Z,75.80
2022-12-04T07:41:29.118Z,75.00
2022-12-04T07:43:55.942Z,74.18
2022-12-04T07:46:25.856Z,75.35
2022-12-04T07:48:57.623Z,73.40
2022-12-04T07:51:27.134Z,76.53
2022-12-04T07:53:54.956Z,76.80
2022-12-04T07:56:21.967Z,73.47
2022-12-04T07:58:49.021Z,73.75
2022-12-04T08:01:18.654Z,76.38
2022-12-04T08:03:48.458Z,73.28
2022-12-04T08:06:18.316Z,75.82
2022-12-04T08:08:45.637Z,76.93
2022-12-04T08:11:15.263Z,72.30
2022-12-04T08:13:42.437Z,71.80
2022-12-04T08:16:11.527Z,77.32
2022-12-04T08:18:38.657Z,72.68
2022-12-04T08:21:09.931Z,72.97
2022-12-04T08:23:38.119Z,77.00
2022-12-04T08:26:05.834Z,73.70
2022-12-04T08:28:32.976Z,79.28
2022-12-04T08:31:08.762Z,75.25
2022-12-04T08:33:36.076Z,77.20
2022-12-04T08:36:06.926Z,72.35
2022-12-04T08:38:33.852Z,74.90
2022-12-04T08:41:05.329Z,72.78
2022-12-04T08:43:32.869Z,73.25
2022-12-04T08:46:01.675Z,76.35
2022-12-04T08:48:29.055Z,71.30
2022-12-04T08:50:56.393Z,72.72
2022-12-04T08:53:24.212Z,72.13
2022-12-04T08:55:51.845Z,73.22
2022-12-04T08:58:19.277Z,78.55
2022-12-04T09:00:46.355Z,72.63
2022-12-04T09:03:18.118Z,75.60
2022-12-04T09:05:48.241Z,79.03
2022-12-04T09:08:16.902Z,77.47
2022-12-04T09:10:44.755Z,76.65
2022-12-04T09:13:11.800Z,68.28
2022-12-04T09:15:39.938Z,76.43
2022-12-04T09:18:07.735Z,78.45
2022-12-04T09:20:35.455Z,69.72
2022-12-04T09:23:05.090Z,79.00
2022-12-04T09:25:35.805Z,73.65
2022-12-04T09:28:02.826Z,73.20
2022-12-04T09:30:30.189Z,75.03
2022-12-04T09:32:57.050Z,71.47
2022-12-04T09:35:24.005Z,74.32
2022-12-04T09:37:50.818Z,70.72
2022-12-04T09:40:37.221Z,76.93
2022-12-04T09:43:31.639Z,70.63
2022-12-04T09:46:08.229Z,71.30
2022-12-04T09:48:39.324Z,71.63
2022-12-04T09:51:07.124Z,74.70
2022-12-04T09:53:48.808Z,70.95
2022-12-04T09:56:19.898Z,69.03
2022-12-04T09:59:05.984Z,68.30
2022-12-04T10:01:47.794Z,75.55
2022-12-04T10:04:15.576Z,70.30
2022-12-04T10:06:56.033Z,72.40
2022-12-04T10:09:32.287Z,75.53
2022-12-04T10:12:25.475Z,67.95
2022-12-04T10:15:04.555Z,68.82
2022-12-04T10:17:42.443Z,68.05
2022-12-04T10:20:24.218Z,67.32
2022-12-04T10:22:59.834Z,69.28
2022-12-04T10:25:28.386Z,63.83
2022-12-04T10:28:02.145Z,68.88
2022-12-04T10:30:33.944Z,64.28
2022-12-04T10:33:15.900Z,62.53
2022-12-04T10:35:45.796Z,66.75
2022-12-04T10:38:39.651Z,64.07
2022-12-04T10:43:47.570Z,69.60
2022-12-04T10:46:23.246Z,58.13
2022-12-04T10:48:57.955Z,56.00
2022-12-04T10:51:24.770Z,56.42
2022-12-04T10:53:52.541Z,56.33
2022-12-04T10:56:24.921Z,53.78
2022-12-04T10:58:59.905Z,56.20
2022-12-04T11:01:29.136Z,52.75
2022-12-04T11:04:01.862Z,51.65
2022-12-04T11:06:29.648Z,52.08
2022-12-04T11:08:58.543Z,44.67
2022-12-04T11:11:32.543Z,47.45
2022-12-04T11:14:17.430Z,42.35
2022-12-04T11:16:48.242Z,48.80
2022-12-04T11:19:32.526Z,42.15
2022-12-04T11:22:05.978Z,47.05
2022-12-04T11:24:35.650Z,36.75
2022-12-04T11:27:07.541Z,40.30
2022-12-04T11:29:43.038Z,36.20
2022-12-04T11:32:26.311Z,34.30
2022-12-04T11:34:57.720Z,36.95
2022-12-04T11:37:34.017Z,36.40
2022-12-04T11:40:05.381Z,36.72
2022-12-04T11:42:33.120Z,44.80
2022-12-04T11:45:18.512Z,38.05
2022-12-04T11:47:57.149Z,38.13
2022-12-04T11:50:51.342Z,37.80
2022-12-04T11:53:32.135Z,40.92
2022-12-04T11:56:14.313Z,34.78
2022-12-04T11:59:10.989Z,37.63
2022-12-04T12:02:04.189Z,37.97
2022-12-04T12:04:49.817Z,37.45
2022-12-04T12:07:22.675Z,38.50
2022-12-04T12:10:04.000Z,38.65
2022-12-04T12:12:30.823Z,40.05
2022-12-04T12:15:03.755Z,37.15
2022-12-04T12:18:06.460Z,36.47
2022-12-04T12:20:41.291Z,40.45
2022-12-04T12:23:45.912Z,38.95
2022-12-04T12:26:16.438Z,39.80
2022-12-04T12:29:00.602Z,36.25
2022-12-04T12:31:52.301Z,41.30
2022-12-04T12:34:37.493Z,40.45
2022-12-04T12:37:40.316Z,44.53
2022-12-04T12:40:14.553Z,41.60
2022-12-04T12:42:58.416Z,36.15
2022-12-04T12:45:43.834Z,39.28
2022-12-04T12:48:23.417Z,39.97
2022-12-04T12:51:29.264Z,44.72
2022-12-04T12:54:03.018Z,42.50
2022-12-04T12:56:35.769Z,42.95
2022-12-04T12:59:06.104Z,39.17
2022-12-04T13:01:47.856Z,40.45
2022-12-04T13:04:29.219Z,41.83
2022-12-04T13:07:17.108Z,39.90
2022-12-04T13:10:11.450Z,42.28
2022-12-04T13:13:02.291Z,44.50
2022-12-04T13:15:44.670Z,41.15
2022-12-04T13:18:30.985Z,40.95
2022-12-04T13:21:06.544Z,41.33
2022-12-04T13:24:10.429Z,43.03
2022-12-04T13:27:01.965Z,41.15
2022-12-04T13:29:52.956Z,37.80
2022-12-04T13:32:27.533Z,39.50
2022-12-04T13:35:24.331Z,38.17
2022-12-04T13:38:21.145Z,40.08
2022-12-04T13:41:03.158Z,39.78
2022-12-04T13:43:37.477Z,42.30
2022-12-04T13:46:23.466Z,42.45
2022-12-04T13:48:50.323Z,46.22
2022-12-04T13:51:38.944Z,41.38
2022-12-04T13:54:11.390Z,45.65
2022-12-04T13:56:50.431Z,43.40
2022-12-04T13:59:32.124Z,45.95
2022-12-04T14:02:07.723Z,44.38
2022-12-04T14:04:46.408Z,42.65
2022-12-04T14:07:43.821Z,40.17
2022-12-04T14:10:16.965Z,47.03
2022-12-04T14:12:57.454Z,43.92
2022-12-04T14:15:27.755Z,44.83
2022-12-04T14:18:16.403Z,45.30
2022-12-04T14:20:44.766Z,39.72
2022-12-04T14:23:26.162Z,47.83
2022-12-04T14:25:57.042Z,46.95
2022-12-04T14:28:42.053Z,43.67
2022-12-04T14:31:21.385Z,47.33
2022-12-04T14:34:01.426Z,44.42
2022-12-04T14:36:41.550Z,50.45
2022-12-04T14:39:26.530Z,43.70
2022-12-04T14:42:04.154Z,48.70
2022-12-04T14:44:31.955Z,57.65
2022-12-04T14:47:25.275Z,51.45
2022-12-04T14:50:20.766Z,53.63
2022-12-04T14:53:12.891Z,59.03
2022-12-04T14:55:57.691Z,50.13
2022-12-04T14:58:31.910Z,46.25
2022-12-04T15:01:04.199Z,48.95
2022-12-04T15:03:41.462Z,51.70
2022-12-04T15:06:14.642Z,44.92
2022-12-04T15:08:53.530Z,49.90
2022-12-04T15:11:40.555Z,53.60
2022-12-04T15:14:16.178Z,48.35
2022-12-04T15:16:43.499Z,50.38
2022-12-04T15:19:18.260Z,52.17
2022-12-04T15:21:45.331Z,50.45
2022-12-04T15:24:23.486Z,54.25
2022-12-04T15:26:53.416Z,50.50
2022-12-04T15:29:27.951Z,51.22
2022-12-04T15:31:58.533Z,53.88
2022-12-04T15:34:41.894Z,55.40
2022-12-04T15:37:20.898Z,54.65
2022-12-04T15:39:51.819Z,50.30
2022-12-04T15:42:22.380Z,45.95
2022-12-04T15:45:01.331Z,50.22
2022-12-04T15:47:51.633Z,50.42
2022-12-04T15:50:18.388Z,50.60
2022-12-04T15:52:57.350Z,44.92
2022-12-04T15:55:25.998Z,51.05
2022-12-04T15:58:02.603Z,46.63
2022-12-04T16:00:42.421Z,52.30
2022-12-04T16:03:31.179Z,55.75
2022-12-04T16:06:08.890Z,64.03
2022-12-04T16:08:38.821Z,51.92
2022-12-04T16:11:38.332Z,47.83
2022-12-04T16:14:17.075Z,47.88
2022-12-04T16:16:52.464Z,49.65
2022-12-04T16:19:37.291Z,46.72
2022-12-04T16:22:19.413Z,41.20
2022-12-04T16:24:47.693Z,48.95
2022-12-04T16:27:17.380Z,44.83
2022-12-04T16:29:45.466Z,44.92
2022-12-04T16:32:18.701Z,41.53
2022-12-04T16:37:15.167Z,41.17
2022-12-04T16:39:42.087Z,38.40
2022-12-04T16:42:17.335Z,40.92
2022-12-04T16:44:44.747Z,44.70
2022-12-04T16:47:12.843Z,45.88
2022-12-04T16:49:40.586Z,47.90
2022-12-04T16:52:08.168Z,44.60
2022-12-04T16:54:35.120Z,44.53
2022-12-04T16:57:02.031Z,40.92
2022-12-04T16:59:28.909Z,49.72
2022-12-04T17:01:56.085Z,43.20
2022-12-04T17:04:23.198Z,51.08
2022-12-04T17:06:50.404Z,48.85
2022-12-04T17:09:17.417Z,49.95
2022-12-04T17:11:45.190Z,46.10
2022-12-04T17:14:12.288Z,48.70
2022-12-04T17:16:42.106Z,48.13
2022-12-04T17:19:10.738Z,50.42
2022-12-04T17:21:38.397Z,51.85
2022-12-04T17:24:05.798Z,52.15
2022-12-04T17:26:32.831Z,48.25
2022-12-04T17:28:59.975Z,52.47
2022-12-04T17:31:27.399Z,51.05
2022-12-04T17:33:55.819Z,55.58
2022-12-04T17:36:25.164Z,52.63
2022-12-04T17:38:57.206Z,47.35
2022-12-04T17:41:24.497Z,52.35
2022-12-04T17:43:51.420Z,49.63
2022-12-04T17:46:21.713Z,48.17
2022-12-04T17:48:49.266Z,51.80
2022-12-04T17:51:18.977Z,45.72
2022-12-04T17:53:48.244Z,48.15
2022-12-04T17:56:18.474Z,47.72
2022-12-04T17:58:46.252Z,45.75
2022-12-04T18:01:18.577Z,50.13
2022-12-04T18:03:50.256Z,49.50
2022-12-04T18:06:23.284Z,45.38
2022-12-04T18:08:51.259Z,49.28
2022-12-04T18:11:23.054Z,49.67
2022-12-04T18:13:55.235Z,48.90
2022-12-04T18:16:22.276Z,47.05
2022-12-04T18:18:50.730Z,43.65
2022-12-04T18:21:17.602Z,45.10
2022-12-04T18:23:46.044Z,44.83
2022-12-04T18:26:22.686Z,44.70
2022-12-04T18:28:50.279Z,44.17
2022-12-04T18:31:18.904Z,42.65
2022-12-04T18:33:46.261Z,43.95
2022-12-04T18:36:32.532Z,47.13
2022-12-04T18:39:02.226Z,47.42
2022-12-04T18:41:29.389Z,45.67
2022-12-04T18:43:56.734Z,50.58
2022-12-04T18:46:24.461Z,50.63
2022-12-04T18:48:54.362Z,51.58
2022-12-04T18:51:27.073Z,45.85
2022-12-04T18:53:57.201Z,48.35
2022-12-04T18:56:24.343Z,47.47
2022-12-04T18:59:00.692Z,43.05
2022-12-04T19:01:28.640Z,44.58
2022-12-04T19:03:57.642Z,45.60
2022-12-04T19:06:33.885Z,46.25
2022-12-04T19:09:02.455Z,48.38
2022-12-04T19:11:29.420Z,47.35
2022-12-04T19:13:58.143Z,42.60
2022-12-04T19:16:25.489Z,46.50
2022-12-04T19:18:52.367Z,44.50
2022-12-04T19:21:19.614Z,44.78
2022-12-04T19:23:56.641Z,46.70
2022-12-04T19:26:23.580Z,43.53
2022-12-04T19:28:51.955Z,46.42
2022-12-04T19:31:20.572Z,45.35
2022-12-04T19:33:47.989Z,47.58
2022-12-04T19:36:15.534Z,42.75
2022-12-04T19:38:42.814Z,40.10
2022-12-04T19:41:14.106Z,45.28
2022-12-04T19:43:44.671Z,41.47
2022-12-04T19:46:14.219Z,48.47
2022-12-04T19:48:41.937Z,47.45
2022-12-04T19:51:12.375Z,51.65
2022-12-04T19:53:41.366Z,44.20
2022-12-04T19:56:17.288Z,47.60
2022-12-04T19:58:44.602Z,40.58
2022-12-04T20:01:14.535Z,40.75
2022-12-04T20:03:42.102Z,43.78
2022-12-04T20:06:11.696Z,40.40
2022-12-04T20:08:39.373Z,42.60
2022-12-04T20:11:18.350Z,41.25
2022-12-04T20:13:46.824Z,41.03
2022-12-04T20:16:16.672Z,42.40
2022-12-04T20:18:44.116Z,44.78
2022-12-04T20:21:12.036Z,44.38
2022-12-04T20:23:53.967Z,41.30
2022-12-04T20:26:26.920Z,45.47
2022-12-04T20:28:56.173Z,41.00
2022-12-04T20:31:37.285Z,46.05
2022-12-04T20:34:07.638Z,42.30
2022-12-04T20:36:41.557Z,41.30
2022-12-04T20:39:09.499Z,41.95
2022-12-04T20:41:37.380Z,47.95
2022-12-04T20:44:06.758Z,45.58
2022-12-04T20:46:36.484Z,45.75
2022-12-04T20:49:07.248Z,45.20
2022-12-04T20:51:37.545Z,43.25
2022-12-04T20:54:05.362Z,48.15
2022-12-04T20:56:34.258Z,44.22
2022-12-04T20:59:07.678Z,45.55
2022-12-04T21:01:35.574Z,53.85
2022-12-04T21:04:04.295Z,49.28
2022-12-04T21:06:37.912Z,45.45
2022-12-04T21:09:07.315Z,48.80
2022-12-04T21:11:37.196Z,50.13
2022-12-04T21:14:30.715Z,47.47
2022-12-04T21:16:58.173Z,46.33
2022-12-04T21:19:25.255Z,52.05
2022-12-04T21:21:52.467Z,52.42
2022-12-04T21:24:21.858Z,49.33
2022-12-04T21:26:48.771Z,46.75
2022-12-04T21:29:16.335Z,52.40
2022-12-04T21:31:43.329Z,52.72
2022-12-04T21:34:12.831Z,51.00
2022-12-04T21:36:39.820Z,46.90
2022-12-04T21:39:07.639Z,47.25
2022-12-04T21:41:53.545Z,51.63
2022-12-04T21:44:21.314Z,45.97
2022-12-04T21:46:51.088Z,49.15
2022-12-04T21:49:19.124Z,52.25
2022-12-04T21:51:57.143Z,47.15
2022-12-04T21:54:25.019Z,56.25
2022-12-04T21:56:51.859Z,55.65
2022-12-04T21:59:18.815Z,46.72
2022-12-04T22:01:45.960Z,50.25
2022-12-04T22:04:13.020Z,49.85
2022-12-04T22:06:40.089Z,53.25
2022-12-04T22:09:09.227Z,48.97
2022-12-04T22:11:36.896Z,48.22
2022-12-04T22:14:04.266Z,49.50
2022-12-04T22:16:32.832Z,48.72
2022-12-04T22:19:01.616Z,47.70
2022-12-04T22:21:28.816Z,47.90
2022-12-04T22:24:01.201Z,50.22
2022-12-04T22:26:29.722Z,47.00
2022-12-04T22:28:56.679Z,51.20
2022-12-04T22:31:26.039Z,50.38
2022-12-04T22:33:55.307Z,51.47
2022-12-04T22:36:25.256Z,48.30
2022-12-04T22:39:08.922Z,49.25
2022-12-04T22:41:36.629Z,53.08
2022-12-04T22:44:03.821Z,47.03
2022-12-04T22:46:30.789Z,43.40
2022-12-04T22:48:58.975Z,44.67
2022-12-04T22:51:27.040Z,46.30
2022-12-04T22:53:56.244Z,45.47
2022-12-04T22:56:31.679Z,46.92
2022-12-04T22:58:59.587Z,45.85
2022-12-04T23:01:28.679Z,49.80
2022-12-04T23:03:55.839Z,44.38
2022-12-04T23:06:24.477Z,53.20
2022-12-04T23:09:03.927Z,39.75
2022-12-04T23:11:30.998Z,45.05
2022-12-04T23:14:01.690Z,42.92
2022-12-04T23:16:30.931Z,46.95
2022-12-04T23:18:57.982Z,44.35
2022-12-04T23:21:25.779Z,43.42
2022-12-04T23:23:54.296Z,42.42
2022-12-04T23:26:26.616Z,42.90
2022-12-04T23:28:54.760Z,38.70
2022-12-04T23:31:22.157Z,42.33
2022-12-04T23:33:49.063Z,40.47
2022-12-04T23:36:16.813Z,41.55
2022-12-04T23:38:44.423Z,44.38
2022-12-04T23:41:28.341Z,41.05
2022-12-04T23:43:57.416Z,38.55
2022-12-04T23:46:28.886Z,45.75
2022-12-04T23:48:55.870Z,41.95
2022-12-04T23:51:23.108Z,37.47
2022-12-04T23:53:51.310Z,37.15
2022-12-04T23:56:23.580Z,36.38
2022-12-04T23:58:52.290Z,33.50
